Norwegian Crown — C6II4 — position and weather

sailwx.info

Track history (hours):
 
Tides and Currents Weather Stations Pressure Air Temp Water Temp Dewpoint Dewpoint Depression Visibility Wind Speed Wind Dir Waves Ship Positions

Norwegian Crown

Operator: Norwegian Cruise Line

Last reported at 2015-Sep-04 05:07 UTC. Time now 2015-Sep-04 21:02 UTC.
Position N 56°08' E 018°18'.

Type: Passenger vessel. MMSI: 308785000.

Date/timePositionNaut miles runAvg speedWind from/ knotsBaromVisibWave heightAir tempDewpointWater temp
2015-Sep-04 05:07N 56°08' E 018°18'917.0
2015-Sep-04 04:33N 56°03' E 018°04'1717.0
2015-Sep-04 03:33N 55°56' E 017°37'6916.8
2015-Sep-03 23:27N 55°38' E 015°38'1516.8
2015-Sep-03 22:33N 55°32' E 015°13'1716.7
2015-Sep-03 21:34N 55°25' E 014°47'1616.4
2015-Sep-03 20:34N 55°14' E 014°26'1716.5
2015-Sep-03 19:34N 55°02' E 014°06'1716.6
2015-Sep-03 18:33N 54°56' E 013°39'2216.5
2015-Sep-03 17:13N 54°49' E 013°03'1816.3
2015-Sep-03 16:08N 54°42' E 012°35'1215.6
2015-Sep-03 15:20N 54°34' E 012°18'1215.3
2015-Sep-03 14:33N 54°24' E 012°07'1716.8
2015-Sep-03 13:33N 54°27' E 011°38'1616.1
2015-Sep-03 12:33N 54°34' E 011°14'1615.7
2015-Sep-03 11:34N 54°34' E 010°47'1616.2
2015-Sep-03 10:33N 54°30' E 010°20'1010.0
2015-Sep-03 09:33N 54°22' E 010°10'3 3.2
2015-Sep-03 08:33N 54°22' E 010°04'6 6.0
2015-Sep-03 07:33N 54°21' E 009°54'6 6.4
2015-Sep-03 06:33N 54°20' E 009°43'6 5.9
2015-Sep-03 05:29N 54°15' E 009°37'6 6.5
2015-Sep-03 04:33N 54°11' E 009°29'7 6.6
2015-Sep-03 03:33N 54°07' E 009°20'5 5.1
2015-Sep-03 02:33N 54°02' E 009°18'7 6.5
2015-Sep-03 01:33N 53°56' E 009°13'4 3.6
2015-Sep-03 00:34N 53°54' E 009°09'1 1.3
2015-Sep-02 23:33N 53°53' E 009°07'0 0.5
2015-Sep-02 22:33N 53°53' E 009°06'3 3.0
2015-Sep-02 21:33N 53°51' E 009°02'1010.0
2015-Sep-02 20:33N 53°52' E 008°45'1211.6
2015-Sep-02 19:33N 53°58' E 008°29'1211.5
2015-Sep-02 18:33N 53°59' E 008°09'1313.4
2015-Sep-02 17:33N 53°57' E 007°47'1515.0
2015-Sep-02 16:33N 53°53' E 007°22'1515.2
2015-Sep-02 15:33N 53°50' E 006°57'1615.4
2015-Sep-02 14:32N 53°46' E 006°31'1515.7
2015-Sep-02 13:33N 53°42' E 006°07'1616.0
2015-Sep-02 12:34N 53°37' E 005°41'1616.2
2015-Sep-02 11:34N 53°32' E 005°15'1716.5
2015-Sep-02 10:33N 53°26' E 004°49'2015.9
2015-Sep-02 09:20N 53°10' E 004°29'1215.9
2015-Sep-02 08:34N 52°60' E 004°19'1817.9
2015-Sep-02 07:33N 52°44' E 004°05'1918.3
2015-Sep-02 06:31N 52°30' E 003°43'7619.2
2015-Sep-02 02:33N 51°35' E 002°19'2019.6
2015-Sep-02 01:33N 51°20' E 001°58'2019.8
2015-Sep-02 00:33N 51°05' E 001°38'1918.8
2015-Sep-01 23:33N 50°48' E 001°23'1918.4
2015-Sep-01 22:33N 50°35' E 001°03'1515.5
2015-Sep-01 21:33N 50°29' E 000°41'5117.1
2015-Sep-01 18:33N 50°32' W 000°40'1616.1
2015-Sep-01 17:33N 50°42' W 000°59'1313.4
2015-Sep-01 16:33N 50°48' W 001°18'6 0.6
2015-Sep-01 06:33N 50°53' W 001°24'6 6.4
2015-Sep-01 05:33N 50°48' W 001°18'1312.6
2015-Sep-01 04:34N 50°43' W 000°60'1212.3
2015-Sep-01 03:34N 50°31' W 000°56'4816.0
2015-Sep-01 00:33N 49°47' W 000°26'1615.7
2015-Aug-31 23:33N 49°33' W 000°15'1312.8
2015-Aug-31 22:34N 49°27' E 000°02'8 7.8
2015-Aug-31 21:33N 49°26' E 000°14'0 0.0
2015-Aug-31 20:33N 49°26' E 000°14'0 0.0
2015-Aug-31 19:33N 49°26' E 000°14'0 0.0
2015-Aug-31 18:33N 49°26' E 000°14'0 0.0
2015-Aug-31 17:33N 49°26' E 000°14'0 0.0
2015-Aug-31 16:33N 49°26' E 000°14'0 0.0
2015-Aug-31 15:33N 49°26' E 000°14'0 0.0
2015-Aug-31 14:33N 49°26' E 000°14'0 0.0
2015-Aug-31 13:33N 49°26' E 000°14'0 0.0
2015-Aug-31 12:33N 49°26' E 000°14'0 0.0
2015-Aug-31 11:33N 49°26' E 000°14'0 0.0
2015-Aug-31 10:33N 49°26' E 000°14'0 0.0
2015-Aug-31 09:33N 49°26' E 000°14'0 0.0
2015-Aug-31 08:33N 49°26' E 000°14'0 0.0
2015-Aug-31 07:33N 49°26' E 000°14'0 0.0
2015-Aug-31 06:33N 49°26' E 000°14'0 0.0
2015-Aug-31 05:33N 49°26' E 000°14'0 0.0
2015-Aug-31 04:33N 49°26' E 000°14'0 0.0
2015-Aug-31 03:33N 49°26' E 000°14'0 0.0
2015-Aug-31 02:33N 49°26' E 000°14'2 1.9
2015-Aug-31 01:33N 49°26' E 000°11'1312.8
2015-Aug-31 00:33N 49°29' W 000°07'1313.2
2015-Aug-30 23:34N 49°35' W 000°26'1414.3
2015-Aug-30 22:34N 49°42' W 000°45'70 7.4
2015-Aug-30 13:10N 49°28' W 002°31'0 0.0
2015-Aug-30 07:12N 49°28' W 002°31'55 6.9
2015-Aug-29 23:18N 50°08' W 001°34'1111.8
2015-Aug-29 22:23N 50°16' W 001°23'910.6
2015-Aug-29 21:34N 50°23' W 001°14'9 9.5
2015-Aug-29 20:33N 50°30' W 001°04'9 9.2
2015-Aug-29 19:33N 50°38' W 000°58'1211.5
2015-Aug-29 18:33N 50°46' W 001°13'10 9.3
2015-Aug-29 17:26N 50°53' W 001°24'0 0.0
2015-Aug-29 14:26N 50°53' W 001°24'0 0.0
2015-Aug-29 05:07N 50°53' W 001°24'4 6.7
2015-Aug-29 04:33N 50°50' W 001°19'10 9.7
2015-Aug-29 03:33N 50°45' W 001°07'1211.6
2015-Aug-29 02:34N 50°38' W 000°52'1514.7
2015-Aug-29 01:33N 50°33' W 000°31'1817.9
2015-Aug-29 00:33N 50°33' W 000°02'1717.1
2015-Aug-28 23:33N 50°36' E 000°24'1615.8
2015-Aug-28 22:33N 50°43' E 000°46'1514.8
2015-Aug-28 21:33N 50°51' E 001°06'1514.7
2015-Aug-28 20:33N 51°00' E 001°24'1616.4
2015-Aug-28 19:34N 51°11' E 001°43'1817.7
2015-Aug-28 18:34N 51°27' E 001°57'1716.8
2015-Aug-28 17:33N 51°40' E 002°14'43315.3
2015-Aug-27 13:17N 58°42' E 004°55'1115.4
2015-Aug-27 12:33N 58°53' E 005°03'1514.6
2015-Aug-27 11:33N 59°05' E 005°18'1212.5
2015-Aug-27 10:33N 59°16' E 005°06'1515.1
2015-Aug-27 09:32N 59°31' E 005°12'1515.3
2015-Aug-27 08:33N 59°44' E 005°28'1615.9
2015-Aug-27 07:33N 59°57' E 005°48'4 2.1
2015-Aug-27 05:26N 59°60' E 005°54'1516.3
2015-Aug-27 04:31N 59°49' E 005°34'  
Track history (hours):
 
Tides and Currents Weather Stations Pressure Air Temp Water Temp Dewpoint Dewpoint Depression Visibility Wind Speed Wind Dir Waves Ship Positions

Norwegian Crown

Operator: Norwegian Cruise Line

Last reported at 2015-Sep-04 05:07 UTC. Time now 2015-Sep-04 21:02 UTC.
Position N 56°08' E 018°18'.

Type: Passenger vessel. MMSI: 308785000.

Date/timePositionNaut miles runAvg speedWind from/ knotsBaromVisibWave heightAir tempDewpointWater temp
2015-Sep-04 05:07N 56°08' E 018°18'917.0
2015-Sep-04 04:33N 56°03' E 018°04'1717.0
2015-Sep-04 03:33N 55°56' E 017°37'6916.8
2015-Sep-03 23:27N 55°38' E 015°38'1516.8
2015-Sep-03 22:33N 55°32' E 015°13'1716.7
2015-Sep-03 21:34N 55°25' E 014°47'1616.4
2015-Sep-03 20:34N 55°14' E 014°26'1716.5
2015-Sep-03 19:34N 55°02' E 014°06'1716.6
2015-Sep-03 18:33N 54°56' E 013°39'2216.5
2015-Sep-03 17:13N 54°49' E 013°03'1816.3
2015-Sep-03 16:08N 54°42' E 012°35'1215.6
2015-Sep-03 15:20N 54°34' E 012°18'1215.3
2015-Sep-03 14:33N 54°24' E 012°07'1716.8
2015-Sep-03 13:33N 54°27' E 011°38'1616.1
2015-Sep-03 12:33N 54°34' E 011°14'1615.7
2015-Sep-03 11:34N 54°34' E 010°47'1616.2
2015-Sep-03 10:33N 54°30' E 010°20'1010.0
2015-Sep-03 09:33N 54°22' E 010°10'3 3.2
2015-Sep-03 08:33N 54°22' E 010°04'6 6.0
2015-Sep-03 07:33N 54°21' E 009°54'6 6.4
2015-Sep-03 06:33N 54°20' E 009°43'6 5.9
2015-Sep-03 05:29N 54°15' E 009°37'6 6.5
2015-Sep-03 04:33N 54°11' E 009°29'7 6.6
2015-Sep-03 03:33N 54°07' E 009°20'5 5.1
2015-Sep-03 02:33N 54°02' E 009°18'7 6.5
2015-Sep-03 01:33N 53°56' E 009°13'4 3.6
2015-Sep-03 00:34N 53°54' E 009°09'1 1.3
2015-Sep-02 23:33N 53°53' E 009°07'0 0.5
2015-Sep-02 22:33N 53°53' E 009°06'3 3.0
2015-Sep-02 21:33N 53°51' E 009°02'1010.0
2015-Sep-02 20:33N 53°52' E 008°45'1211.6
2015-Sep-02 19:33N 53°58' E 008°29'1211.5
2015-Sep-02 18:33N 53°59' E 008°09'1313.4
2015-Sep-02 17:33N 53°57' E 007°47'1515.0
2015-Sep-02 16:33N 53°53' E 007°22'1515.2
2015-Sep-02 15:33N 53°50' E 006°57'1615.4
2015-Sep-02 14:32N 53°46' E 006°31'1515.7
2015-Sep-02 13:33N 53°42' E 006°07'1616.0
2015-Sep-02 12:34N 53°37' E 005°41'1616.2
2015-Sep-02 11:34N 53°32' E 005°15'1716.5
2015-Sep-02 10:33N 53°26' E 004°49'2015.9
2015-Sep-02 09:20N 53°10' E 004°29'1215.9
2015-Sep-02 08:34N 52°60' E 004°19'1817.9
2015-Sep-02 07:33N 52°44' E 004°05'1918.3
2015-Sep-02 06:31N 52°30' E 003°43'7619.2
2015-Sep-02 02:33N 51°35' E 002°19'2019.6
2015-Sep-02 01:33N 51°20' E 001°58'2019.8
2015-Sep-02 00:33N 51°05' E 001°38'1918.8
2015-Sep-01 23:33N 50°48' E 001°23'1918.4
2015-Sep-01 22:33N 50°35' E 001°03'1515.5
2015-Sep-01 21:33N 50°29' E 000°41'5117.1
2015-Sep-01 18:33N 50°32' W 000°40'1616.1
2015-Sep-01 17:33N 50°42' W 000°59'1313.4
2015-Sep-01 16:33N 50°48' W 001°18'6 0.6
2015-Sep-01 06:33N 50°53' W 001°24'6 6.4
2015-Sep-01 05:33N 50°48' W 001°18'1312.6
2015-Sep-01 04:34N 50°43' W 000°60'1212.3
2015-Sep-01 03:34N 50°31' W 000°56'4816.0
2015-Sep-01 00:33N 49°47' W 000°26'1615.7
2015-Aug-31 23:33N 49°33' W 000°15'1312.8
2015-Aug-31 22:34N 49°27' E 000°02'8 7.8
2015-Aug-31 21:33N 49°26' E 000°14'0 0.0
2015-Aug-31 20:33N 49°26' E 000°14'0 0.0
2015-Aug-31 19:33N 49°26' E 000°14'0 0.0
2015-Aug-31 18:33N 49°26' E 000°14'0 0.0
2015-Aug-31 17:33N 49°26' E 000°14'0 0.0
2015-Aug-31 16:33N 49°26' E 000°14'0 0.0
2015-Aug-31 15:33N 49°26' E 000°14'0 0.0
2015-Aug-31 14:33N 49°26' E 000°14'0 0.0
2015-Aug-31 13:33N 49°26' E 000°14'0 0.0
2015-Aug-31 12:33N 49°26' E 000°14'0 0.0
2015-Aug-31 11:33N 49°26' E 000°14'0 0.0
2015-Aug-31 10:33N 49°26' E 000°14'0 0.0
2015-Aug-31 09:33N 49°26' E 000°14'0 0.0
2015-Aug-31 08:33N 49°26' E 000°14'0 0.0
2015-Aug-31 07:33N 49°26' E 000°14'0 0.0
2015-Aug-31 06:33N 49°26' E 000°14'0 0.0
2015-Aug-31 05:33N 49°26' E 000°14'0 0.0
2015-Aug-31 04:33N 49°26' E 000°14'0 0.0
2015-Aug-31 03:33N 49°26' E 000°14'0 0.0
2015-Aug-31 02:33N 49°26' E 000°14'2 1.9
2015-Aug-31 01:33N 49°26' E 000°11'1312.8
2015-Aug-31 00:33N 49°29' W 000°07'1313.2
2015-Aug-30 23:34N 49°35' W 000°26'1414.3
2015-Aug-30 22:34N 49°42' W 000°45'70 7.4
2015-Aug-30 13:10N 49°28' W 002°31'0 0.0
2015-Aug-30 07:12N 49°28' W 002°31'55 6.9
2015-Aug-29 23:18N 50°08' W 001°34'1111.8
2015-Aug-29 22:23N 50°16' W 001°23'910.6
2015-Aug-29 21:34N 50°23' W 001°14'9 9.5
2015-Aug-29 20:33N 50°30' W 001°04'9 9.2
2015-Aug-29 19:33N 50°38' W 000°58'1211.5
2015-Aug-29 18:33N 50°46' W 001°13'10 9.3
2015-Aug-29 17:26N 50°53' W 001°24'0 0.0
2015-Aug-29 14:26N 50°53' W 001°24'0 0.0
2015-Aug-29 05:07N 50°53' W 001°24'4 6.7
2015-Aug-29 04:33N 50°50' W 001°19'10 9.7
2015-Aug-29 03:33N 50°45' W 001°07'1211.6
2015-Aug-29 02:34N 50°38' W 000°52'1514.7
2015-Aug-29 01:33N 50°33' W 000°31'1817.9
2015-Aug-29 00:33N 50°33' W 000°02'1717.1
2015-Aug-28 23:33N 50°36' E 000°24'1615.8
2015-Aug-28 22:33N 50°43' E 000°46'1514.8
2015-Aug-28 21:33N 50°51' E 001°06'1514.7
2015-Aug-28 20:33N 51°00' E 001°24'1616.4
2015-Aug-28 19:34N 51°11' E 001°43'1817.7
2015-Aug-28 18:34N 51°27' E 001°57'1716.8
2015-Aug-28 17:33N 51°40' E 002°14'43315.3
2015-Aug-27 13:17N 58°42' E 004°55'1115.4
2015-Aug-27 12:33N 58°53' E 005°03'1514.6
2015-Aug-27 11:33N 59°05' E 005°18'1212.5
2015-Aug-27 10:33N 59°16' E 005°06'1515.1
2015-Aug-27 09:32N 59°31' E 005°12'1515.3
2015-Aug-27 08:33N 59°44' E 005°28'1615.9
2015-Aug-27 07:33N 59°57' E 005°48'4 2.1
2015-Aug-27 05:26N 59°60' E 005°54'1516.3
2015-Aug-27 04:31N 59°49' E 005°34'  

Dump ship's entire track history